LFMH/EBU METAR and TAF weather

Enter ICAO airport designator
Station Type Date Time Source
LFMH METAR 2020/07/08 22:00 UTC NOAA

LFMH 082200Z AUTO 17003KT CAVOK 18/11 Q1019


Station Type Date Time Source
LFMH Decoded METAR 2020/07/08 22:00 UTC NOAA

St-Etienne Boutheon, France (LFMH) 45-32N 004-18E 402M
Jul 08, 2020 - 06:00 PM EDT / 2020.07.08 2200 UTC
Wind: from the S (170 degrees) at 3 MPH (3 KT):0
Visibility: greater than 7 mile(s):0
Temperature: 64 F (18 C)
Dew Point: 51 F (11 C)
Relative Humidity: 63%
Pressure (altimeter): 30.09 in. Hg (1019 hPa)
ob: LFMH 082200Z AUTO 17003KT CAVOK 18/11 Q1019
cycle: 22

Station Type Date Time Source
LFMH TAF 2020/07/08 20:06 UTC NOAA

TAF
AMD TAF
AMD LFMH 082002Z 0820/0915 CNL

Example: see airport list